地図

経路データ

SID SEASON NUMBER BASIN SUBBASIN NAME ISO_TIME NATURE LAT LON WMO_WIND WMO_PRES WMO_AGENCY TRACK_TYPE DIST2LAND LANDFALL IFLAG USA_AGENCY USA_ATCF_ID USA_LAT USA_LON USA_RECORD USA_STATUS USA_WIND USA_PRES USA_SSHS USA_R34_NE USA_R34_SE USA_R34_SW USA_R34_NW USA_R50_NE USA_R50_SE USA_R50_SW USA_R50_NW USA_R64_NE USA_R64_SE USA_R64_SW USA_R64_NW USA_POCI USA_ROCI USA_RMW USA_EYE TOKYO_LAT TOKYO_LON TOKYO_GRADE TOKYO_WIND TOKYO_PRES TOKYO_R50_DIR TOKYO_R50_LONG TOKYO_R50_SHORT TOKYO_R30_DIR TOKYO_R30_LONG TOKYO_R30_SHORT TOKYO_LAND CMA_LAT CMA_LON CMA_CAT CMA_WIND CMA_PRES HKO_LAT HKO_LON HKO_CAT HKO_WIND HKO_PRES NEWDELHI_LAT NEWDELHI_LON NEWDELHI_GRADE NEWDELHI_WIND NEWDELHI_PRES NEWDELHI_CI NEWDELHI_DP NEWDELHI_POCI REUNION_LAT REUNION_LON REUNION_TYPE REUNION_WIND REUNION_PRES REUNION_TNUM REUNION_CI REUNION_RMW REUNION_R34_NE REUNION_R34_SE REUNION_R34_SW REUNION_R34_NW REUNION_R50_NE REUNION_R50_SE REUNION_R50_SW REUNION_R50_NW REUNION_R64_NE REUNION_R64_SE REUNION_R64_SW REUNION_R64_NW BOM_LAT BOM_LON BOM_TYPE BOM_WIND BOM_PRES BOM_TNUM BOM_CI BOM_RMW BOM_R34_NE BOM_R34_SE BOM_R34_SW BOM_R34_NW BOM_R50_NE BOM_R50_SE BOM_R50_SW BOM_R50_NW BOM_R64_NE BOM_R64_SE BOM_R64_SW BOM_R64_NW BOM_ROCI BOM_POCI BOM_EYE BOM_POS_METHOD BOM_PRES_METHOD NADI_LAT NADI_LON NADI_CAT NADI_WIND NADI_PRES WELLINGTON_LAT WELLINGTON_LON WELLINGTON_WIND WELLINGTON_PRES DS824_LAT DS824_LON DS824_STAGE DS824_WIND DS824_PRES TD9636_LAT TD9636_LON TD9636_STAGE TD9636_WIND TD9636_PRES TD9635_LAT TD9635_LON TD9635_WIND TD9635_PRES TD9635_ROCI NEUMANN_LAT NEUMANN_LON NEUMANN_CLASS NEUMANN_WIND NEUMANN_PRES MLC_LAT MLC_LON MLC_CLASS MLC_WIND MLC_PRES USA_GUST BOM_GUST BOM_GUST_PER REUNION_GUST REUNION_GUST_PER USA_SEAHGT USA_SEARAD_NE USA_SEARAD_SE USA_SEARAD_SW USA_SEARAD_NW STORM_SPEED STORM_DIR
2004357S16216 2005 104 SP MM JUDY 2004-12-21 12:00:00 NR -16.0000 -144.200 15 1004 nadi main 3017 3007 ______________ -1 -16.0000 -144.200 -1 15 1004 4 224
2004357S16216 2005 104 SP MM JUDY 2004-12-21 15:00:00 NR -16.1475 -144.350 main 3007 2986 _______I______ -1 -16.1475 -144.350 -1 15 1004 4 224
2004357S16216 2005 104 SP MM JUDY 2004-12-21 18:00:00 NR -16.3000 -144.500 15 1004 nadi main 2986 2976 ______________ -1 -16.3000 -144.500 -1 15 1004 4 223
2004357S16216 2005 104 SP MM JUDY 2004-12-21 21:00:00 NR -16.4575 -144.650 main 2965 2955 _______I______ -1 -16.4575 -144.650 -1 17 1003 4 224
2004357S16216 2005 104 SP MM JUDY 2004-12-22 00:00:00 NR -16.6000 -144.800 20 1003 nadi main 2955 2945 ______________ -1 -16.6000 -144.800 -1 20 1003 4 231
2004357S16216 2005 104 SP MM JUDY 2004-12-22 03:00:00 NR -16.6925 -144.950 main 2934 2902 _______I______ -1 -16.6925 -144.950 -1 20 1003 5 265
2004357S16216 2005 104 SP MM JUDY 2004-12-22 06:00:00 NR -16.6400 -145.280 20 1003 nadi main 2902 2859 ________O_____ -1 -16.8000 -145.100 -1 20 1003 -16.0000 -146.000 35 1003 7 275
2004357S16216 2005 104 SP MM JUDY 2004-12-22 09:00:00 NR -16.6307 -145.673 main 2859 2817 _______IP_____ -1 -16.9774 -145.220 -1 20 1002 -15.9373 -146.580 35 1003 8 267
2004357S16216 2005 104 SP MM JUDY 2004-12-22 12:00:00 NR -16.6857 -146.086 20 1002 nadi main 2817 2786 ________O_____ -1 -17.2000 -145.400 -1 20 1002 -16.0000 -147.000 35 1003 8 251
2004357S16216 2005 104 SP MM JUDY 2004-12-22 15:00:00 NR -16.8856 -146.441 main 2787 2767 _______IP_____ -1 -17.4951 -145.735 -1 20 1002 -16.2761 -147.147 35 1003 7 224
2004357S16216 2005 104 SP MM JUDY 2004-12-22 18:00:00 NR -17.1967 -146.594 20 1002 nadi main 2768 2758 ________P_____ -1 -17.7000 -146.100 -1 20 1002 -16.6933 -147.089 35 1003 6 204
2004357S16216 2005 104 SP MM JUDY 2004-12-22 21:00:00 NR -17.4070 -146.680 main 2759 2759 _______IP_____ -1 -17.6750 -146.425 -1 20 1002 -17.1389 -146.935 35 1003 3 199
2004357S16216 2005 104 SP MM JUDY 2004-12-23 00:00:00 NR -17.5000 -146.700 20 1002 nadi main 2760 2760 ________O_____ -1 -17.5000 -146.600 -1 20 1002 -17.5000 -146.800 35 1004 0 0
2004357S16216 2005 104 SP MM JUDY 2004-12-23 03:00:00 NR -17.4499 -146.704 main 2759 2759 _______IP_____ -1 -17.2199 -146.532 -1 22 1001 -17.6799 -146.876 35 1003 2 55
2004357S16216 2005 104 SP MM JUDY 2004-12-23 06:00:00 NR -17.4000 -146.550 25 1000 nadi main 2769 2769 ________O_____ -1 -17.0000 -146.300 -1 25 1000 -17.8000 -146.800 35 1003 5 93
2004357S16216 2005 104 SP MM JUDY 2004-12-23 09:00:00 NR -17.4778 -146.165 main 2813 2813 _______IP_____ -1 -17.0176 -146.000 -1 25 1000 -17.9380 -146.330 35 1002 8 105
2004357S16216 2005 104 SP MM JUDY 2004-12-23 12:00:00 NR -17.6000 -145.750 25 1000 nadi main 2866 2856 ________O_____ -1 -17.2000 -145.700 -1 25 1000 -18.0000 -145.800 35 1002 6 109
2004357S16216 2005 104 SP MM JUDY 2004-12-23 15:00:00 NR -17.6886 -145.537 main 2889 2889 _______IP_____ -1 -17.4849 -145.520 -1 25 999 -17.8923 -145.555 35 1001 4 121
2004357S16216 2005 104 SP MM JUDY 2004-12-23 18:00:00 NR -17.8000 -145.400 25 999 nadi main 2900 2900 ________O_____ -1 -17.8000 -145.400 -1 25 999 -17.8000 -145.400 35 1000 4 133
2004357S16216 2005 104 SP MM JUDY 2004-12-23 21:00:00 NR -17.9638 -145.228 main 2923 2923 _______IP_____ -1 -18.0225 -145.285 -1 27 998 -17.9050 -145.170 35 999 5 141
2004357S16216 2005 104 SP MM JUDY 2004-12-24 00:00:00 NR -18.1500 -145.100 30 998 nadi main 2935 2936 ________O_____ -1 -18.2000 -145.200 -1 30 998 -18.1000 -145.000 35 999 4 153
2004357S16216 2005 104 SP MM JUDY 2004-12-24 03:00:00 NR -18.3137 -145.041 main 2947 2947 _______IP_____ -1 -18.3425 -145.128 -1 30 997 -18.2850 -144.955 35 998 4 174
2004357S16216 2005 104 SP MM JUDY 2004-12-24 06:00:00 NR -18.5000 -145.050 30 997 nadi main 2939 2939 ________O_____ -1 -18.5000 -145.100 -1 30 997 -18.5000 -145.000 35 998 4 189
2004357S16216 2005 104 SP MM JUDY 2004-12-24 09:00:00 NR -18.7388 -145.117 main 2942 2933 _______IP_____ -1 -18.7350 -145.135 -1 30 996 -18.7425 -145.100 35 998 5 196
2004357S16216 2005 104 SP MM JUDY 2004-12-24 12:00:00 NR -19.0000 -145.200 30 996 nadi main 2935 2935 ________O_____ -1 -19.0000 -145.200 -1 30 996 -19.0000 -145.200 35 998 5 190
2004357S16216 2005 104 SP MM JUDY 2004-12-24 15:00:00 NR -19.2312 -145.210 main 2938 2938 _______IP_____ -1 -19.2350 -145.235 -1 32 995 -19.2275 -145.185 37 995 5 185
2004357S16216 2005 104 SP MM JUDY 2004-12-24 18:00:00 NR -19.5000 -145.250 35 995 nadi main 2943 2925 ________O_____ -1 -19.5000 -145.300 1 35 995 -19.5000 -145.200 40 993 7 198
2004357S16216 2005 104 SP MM JUDY 2004-12-24 21:00:00 NR -19.8880 -145.438 main 2929 2912 _______IP_____ -1 -19.8350 -145.442 1 35 994 -19.9410 -145.434 40 993 8 204
2004357S16216 2005 104 SP MM JUDY 2004-12-25 00:00:00 NR -20.2500 -145.600 35 993 nadi main 2914 2916 ________O_____ -1 -20.2000 -145.600 1 35 993 -20.3000 -145.600 40 993 6 194
2004357S16216 2005 104 SP MM JUDY 2004-12-25 03:00:00 NR -20.4712 -145.596 main 2920 2914 _______IO_____ -1 -20.5424 -145.693 1 37 991 -20.4000 -145.500 40 989 7 192
2004357S16216 2005 104 SP MM JUDY 2004-12-25 06:00:00 NR -20.9000 -145.750 40 990 nadi main 2918 2897 ________O_____ -1 -20.9000 -145.800 1 40 990 -20.9000 -145.700 40 989 9 204
2004357S16216 2005 104 SP MM JUDY 2004-12-25 09:00:00 NR -21.3065 -145.985 main 2897 2884 _______IP_____ -1 -21.2925 -145.978 1 42 988 -21.3205 -145.993 40 989 9 210
2004357S16216 2005 104 SP MM JUDY 2004-12-25 12:00:00 NR -21.7000 -146.250 45 987 nadi main 2887 2865 ________O_____ -1 -21.7000 -146.200 1 45 987 -21.7000 -146.300 40 989 9 211
2004357S16216 2005 104 SP MM JUDY 2004-12-25 15:00:00 NR -22.0775 -146.479 main 2868 2856 _______IP_____ -1 -22.0850 -146.450 1 45 987 -22.0699 -146.508 40 989 9 208
2004357S16216 2005 104 SP MM JUDY 2004-12-25 18:00:00 NR -22.5000 -146.700 45 987 nadi main 2859 2849 ________O_____ -1 -22.5000 -146.700 1 45 987 -22.5000 -146.700 40 989 11 205
2004357S16216 2005 104 SP MM JUDY 2004-12-25 21:00:00 NR -23.0463 -146.962 main 2845 2845 _______IP_____ -1 -22.9850 -146.937 1 45 987 -23.1076 -146.987 40 989 12 201
2004357S16216 2005 104 SP MM JUDY 2004-12-26 00:00:00 NR -23.6000 -147.150 45 987 nadi main 2855 2846 ________O_____ -1 -23.5000 -147.100 1 45 987 -23.7000 -147.200 40 989 10 190
2004357S16216 2005 104 SP MM JUDY 2004-12-26 03:00:00 NR -24.0662 -147.167 main 2864 2864 _______IP_____ -1 -24.0374 -147.138 1 42 988 -24.0949 -147.195 40 989 9 177
2004357S16216 2005 104 SP MM JUDY 2004-12-26 06:00:00 NR -24.4500 -147.100 40 990 nadi main 2884 2888 ________O_____ -1 -24.5000 -147.100 1 40 990 -24.4000 -147.100 40 990 6 167
2004357S16216 2005 104 SP MM JUDY 2004-12-26 09:00:00 NR -24.6388 -147.024 main 2901 2901 _______IP_____ -1 -24.6750 -147.028 1 40 990 -24.6025 -147.020 40 990 6 171
2004357S16216 2005 104 SP MM JUDY 2004-12-26 12:00:00 NR -25.0000 -147.000 40 990 nadi main 2917 2917 ________O_____ -1 -25.0000 -147.000 -1 40 990 -25.0000 -147.000 40 990 13 187
2004357S16216 2005 104 SP MM JUDY 2004-12-26 15:00:00 NR -25.9288 -147.200 main 2935 2935 _______IP_____ -1 -25.9250 -147.200 -1 40 991 -25.9325 -147.200 40 991 20 188
2004357S16216 2005 104 SP MM JUDY 2004-12-26 18:00:00 NR -27.0000 -147.300 40 993 wellington main 2975 2975 ________O_____ -1 -27.0000 -147.300 -1 40 993 -27.0000 -147.300 40 993 19 174
2004357S16216 2005 104 SP MM JUDY 2004-12-26 21:00:00 NR -27.8252 -146.984 main 3040 3040 _______IP_____ -1 -27.8252 -146.984 -1 37 994 -27.8252 -146.984 37 994 17 155
2004357S16216 2005 104 SP MM JUDY 2004-12-27 00:00:00 NR -28.5000 -146.500 35 996 wellington main 3119 3119 ________O_____ -1 -28.5000 -146.500 -1 35 996 -28.5000 -146.500 35 996 14 148
2004357S16216 2005 104 SP MM JUDY 2004-12-27 03:00:00 NR -29.0370 -146.129 main 3178 3178 _______IP_____ -1 -29.0370 -146.129 -1 32 997 -29.0370 -146.129 32 997 12 145
2004357S16216 2005 104 SP MM JUDY 2004-12-27 06:00:00 NR -29.5000 -145.700 30 998 wellington main 3238 3238 ________O_____ -1 -29.5000 -145.700 -1 30 998 -29.5000 -145.700 30 998 13 138
2004357S16216 2005 104 SP MM JUDY 2004-12-27 09:00:00 NR -29.9884 -145.142 main 3315 3315 _______IP_____ -1 -29.9884 -145.142 -1 30 998 -29.9884 -145.142 30 998 14 134
2004357S16216 2005 104 SP MM JUDY 2004-12-27 12:00:00 NR -30.5000 -144.500 30 999 wellington main 3392 ________O_____ -1 -30.5000 -144.500 30 999 -30.5000 -144.500 30 999 15 133

デジタル台風データ・検索

IBTrACS Databaseについて

本データベースは、米国NOAAが公開する1842年以降の世界の熱帯低気圧のベストトラックデータアーカイブInternational Best Track Archive for Climate Stewardship (IBTrACS)を、ウェブで閲覧しやすい形式に変換したものです。

最終更新日:2021-10-08